createdAt,value
2022-08-28T00:00:21.024Z,10.48
2022-08-28T00:02:48.124Z,10.07
2022-08-28T00:05:19.013Z,12.40
2022-08-28T00:07:47.928Z,9.82
2022-08-28T00:10:16.988Z,8.65
2022-08-28T00:12:44.816Z,8.50
2022-08-28T00:15:15.174Z,8.63
2022-08-28T00:17:42.237Z,10.20
2022-08-28T00:20:10.718Z,11.20
2022-08-28T00:22:39.136Z,8.90
2022-08-28T00:25:08.553Z,10.90
2022-08-28T00:27:55.215Z,10.25
2022-08-28T00:30:31.844Z,9.23
2022-08-28T00:33:05.091Z,10.88
2022-08-28T00:35:32.359Z,8.93
2022-08-28T00:37:59.445Z,11.00
2022-08-28T00:40:32.943Z,13.65
2022-08-28T00:43:06.033Z,10.80
2022-08-28T00:45:39.297Z,12.90
2022-08-28T00:48:06.222Z,12.20
2022-08-28T00:50:54.411Z,11.10
2022-08-28T00:53:29.978Z,12.32
2022-08-28T00:56:01.428Z,12.38
2022-08-28T00:58:31.326Z,13.43
2022-08-28T01:01:00.508Z,21.00
2022-08-28T01:03:28.396Z,16.60
2022-08-28T01:05:55.561Z,14.15
2022-08-28T01:08:23.025Z,20.92
2022-08-28T01:10:54.776Z,24.27
2022-08-28T01:13:24.254Z,19.00
2022-08-28T01:15:51.674Z,17.55
2022-08-28T01:18:20.127Z,15.27
2022-08-28T01:21:20.200Z,20.17
2022-08-28T01:23:58.232Z,14.55
2022-08-28T01:26:28.132Z,16.52
2022-08-28T01:28:58.237Z,14.95
2022-08-28T01:31:26.870Z,17.70
2022-08-28T01:33:53.728Z,13.93
2022-08-28T01:36:20.542Z,13.27
2022-08-28T01:38:52.822Z,14.20
2022-08-28T01:41:19.519Z,15.52
2022-08-28T01:43:46.273Z,14.15
2022-08-28T01:46:13.202Z,15.27
2022-08-28T01:48:43.637Z,14.43
2022-08-28T01:51:11.385Z,15.52
2022-08-28T01:53:39.240Z,15.07
2022-08-28T01:56:13.641Z,16.42
2022-08-28T01:58:41.249Z,15.98
2022-08-28T02:01:13.358Z,12.90
2022-08-28T02:03:43.133Z,12.40
2022-08-28T02:06:11.068Z,17.02
2022-08-28T02:08:38.380Z,12.98
2022-08-28T02:11:08.213Z,14.27
2022-08-28T02:13:40.139Z,14.25
2022-08-28T02:16:09.220Z,17.50
2022-08-28T02:18:37.802Z,11.15
2022-08-28T02:21:06.002Z,11.65
2022-08-28T02:23:32.801Z,12.05
2022-08-28T02:25:59.772Z,15.80
2022-08-28T02:28:26.545Z,12.65
2022-08-28T02:30:53.369Z,11.10
2022-08-28T02:33:20.177Z,9.98
2022-08-28T02:35:46.917Z,10.43
2022-08-28T02:38:14.104Z,12.82
2022-08-28T02:40:41.403Z,11.20
2022-08-28T02:43:08.181Z,9.82
2022-08-28T02:45:35.774Z,11.23
2022-08-28T02:48:03.676Z,13.65
2022-08-28T02:50:31.462Z,11.10
2022-08-28T02:52:58.669Z,10.35
2022-08-28T02:55:25.684Z,10.88
2022-08-28T02:57:52.924Z,12.15
2022-08-28T03:00:22.586Z,10.73
2022-08-28T03:02:50.054Z,10.43
2022-08-28T03:05:23.456Z,9.30
2022-08-28T03:07:51.067Z,9.85
2022-08-28T03:10:18.653Z,15.35
2022-08-28T03:12:45.477Z,10.70
2022-08-28T03:15:12.522Z,12.18
2022-08-28T03:17:39.373Z,10.98
2022-08-28T03:20:08.686Z,11.75
2022-08-28T03:22:54.784Z,12.52
2022-08-28T03:25:22.425Z,10.50
2022-08-28T03:27:49.622Z,9.90
2022-08-28T03:30:17.180Z,11.52
2022-08-28T03:32:43.846Z,11.50
2022-08-28T03:35:11.949Z,12.45
2022-08-28T03:37:38.822Z,11.75
2022-08-28T03:40:07.775Z,12.90
2022-08-28T03:42:35.233Z,12.07
2022-08-28T03:45:02.117Z,14.10
2022-08-28T03:47:29.663Z,13.65
2022-08-28T03:49:58.140Z,12.05
2022-08-28T03:52:25.065Z,11.02
2022-08-28T03:54:52.704Z,9.82
2022-08-28T03:57:21.130Z,10.48
2022-08-28T03:59:50.225Z,12.23
2022-08-28T04:02:19.211Z,10.70
2022-08-28T04:04:47.106Z,12.68
2022-08-28T04:07:13.882Z,10.52
2022-08-28T04:09:40.579Z,14.65
2022-08-28T04:12:08.699Z,14.23
2022-08-28T04:14:36.204Z,12.45
2022-08-28T04:17:03.825Z,10.90
2022-08-28T04:19:31.092Z,10.43
2022-08-28T04:21:57.822Z,12.90
2022-08-28T04:24:24.592Z,12.23
2022-08-28T04:26:51.543Z,13.32
2022-08-28T04:29:18.453Z,13.68
2022-08-28T04:31:45.408Z,15.90
2022-08-28T04:34:12.161Z,13.07
2022-08-28T04:36:38.892Z,12.45
2022-08-28T04:39:08.492Z,12.73
2022-08-28T04:41:38.569Z,10.82
2022-08-28T04:44:06.231Z,14.20
2022-08-28T04:46:33.380Z,13.85
2022-08-28T04:49:00.636Z,13.27
2022-08-28T04:51:28.204Z,15.52
2022-08-28T04:53:55.060Z,14.05
2022-08-28T04:56:21.863Z,13.15
2022-08-28T04:58:48.770Z,13.15
2022-08-28T05:01:18.820Z,14.10
2022-08-28T05:03:47.867Z,12.52
2022-08-28T05:06:16.290Z,12.77
2022-08-28T05:08:43.295Z,10.23
2022-08-28T05:11:36.048Z,13.38
2022-08-28T05:14:05.172Z,12.43
2022-08-28T05:16:33.138Z,11.57
2022-08-28T05:19:03.804Z,12.70
2022-08-28T05:21:30.608Z,11.30
2022-08-28T05:23:59.051Z,12.30
2022-08-28T05:26:27.186Z,12.15
2022-08-28T05:28:57.833Z,11.82
2022-08-28T05:31:25.874Z,11.35
2022-08-28T05:33:53.524Z,12.43
2022-08-28T05:36:22.702Z,9.65
2022-08-28T05:38:50.535Z,10.82
2022-08-28T05:41:23.431Z,9.00
2022-08-28T05:43:50.320Z,11.65
2022-08-28T05:46:17.709Z,8.60
2022-08-28T05:48:45.776Z,12.40
2022-08-28T05:51:15.349Z,10.98
2022-08-28T05:53:43.836Z,10.73
2022-08-28T05:56:12.681Z,10.20
2022-08-28T05:58:40.398Z,9.50
2022-08-28T06:01:08.797Z,8.52
2022-08-28T06:03:37.421Z,9.88
2022-08-28T06:06:04.992Z,9.38
2022-08-28T06:08:32.618Z,7.88
2022-08-28T06:11:01.767Z,9.63
2022-08-28T06:13:30.691Z,6.80
2022-08-28T06:15:58.074Z,11.30
2022-08-28T06:18:25.552Z,7.50
2022-08-28T06:20:53.687Z,9.93
2022-08-28T06:23:24.061Z,10.70
2022-08-28T06:25:52.164Z,10.25
2022-08-28T06:28:25.156Z,8.93
2022-08-28T06:31:18.605Z,10.15
2022-08-28T06:33:40.227Z,9.48
2022-08-28T06:36:07.795Z,9.45
2022-08-28T06:38:34.806Z,9.55
2022-08-28T06:41:01.632Z,8.18
2022-08-28T06:43:29.815Z,10.45
2022-08-28T06:45:57.928Z,8.82
2022-08-28T06:48:27.693Z,9.88
2022-08-28T06:50:56.972Z,10.98
2022-08-28T06:53:30.707Z,9.40
2022-08-28T06:56:28.430Z,10.52
2022-08-28T06:58:58.289Z,11.30
2022-08-28T07:01:29.610Z,8.95
2022-08-28T07:03:59.581Z,12.95
2022-08-28T07:06:27.496Z,12.75
2022-08-28T07:08:54.174Z,11.02
2022-08-28T07:11:26.086Z,10.55
2022-08-28T07:13:54.065Z,10.27
2022-08-28T07:16:23.484Z,12.52
2022-08-28T07:18:50.386Z,15.52
2022-08-28T07:21:17.239Z,18.40
2022-08-28T07:23:45.255Z,26.45
2022-08-28T07:26:15.348Z,26.10
2022-08-28T07:28:42.493Z,19.92
2022-08-28T07:31:15.792Z,20.67
2022-08-28T07:33:43.628Z,18.67
2022-08-28T07:36:16.067Z,20.88
2022-08-28T07:38:58.992Z,22.15
2022-08-28T07:41:28.352Z,18.52
2022-08-28T07:44:13.884Z,20.40
2022-08-28T07:46:41.366Z,20.50
2022-08-28T07:49:08.865Z,25.05
2022-08-28T07:51:36.444Z,26.38
2022-08-28T07:54:04.041Z,20.77
2022-08-28T07:56:31.918Z,20.92
2022-08-28T07:59:00.335Z,21.08
2022-08-28T08:01:30.782Z,19.80
2022-08-28T08:04:01.507Z,20.05
2022-08-28T08:06:34.116Z,13.48
2022-08-28T08:09:02.585Z,17.13
2022-08-28T08:11:32.470Z,18.75
2022-08-28T08:14:05.538Z,14.15
2022-08-28T08:16:36.113Z,14.45
2022-08-28T08:19:04.022Z,15.82
2022-08-28T08:21:31.505Z,19.27
2022-08-28T08:23:58.775Z,15.30
2022-08-28T08:26:30.140Z,18.23
2022-08-28T08:28:57.391Z,23.92
2022-08-28T08:31:32.309Z,13.35
2022-08-28T08:34:02.427Z,14.00
2022-08-28T08:36:30.720Z,16.17
2022-08-28T08:39:00.357Z,16.75
2022-08-28T08:41:47.948Z,14.30
2022-08-28T08:44:34.546Z,14.68
2022-08-28T08:47:22.554Z,12.88
2022-08-28T08:49:56.192Z,14.25
2022-08-28T08:52:44.040Z,15.00
2022-08-28T08:55:19.771Z,18.30
2022-08-28T08:57:51.279Z,17.23
2022-08-28T09:00:19.707Z,17.45
2022-08-28T09:03:45.105Z,11.95
2022-08-28T09:06:29.696Z,15.43
2022-08-28T09:09:03.209Z,12.80
2022-08-28T09:11:47.427Z,15.52
2022-08-28T09:14:21.810Z,14.52
2022-08-28T09:16:55.524Z,13.07
2022-08-28T09:19:22.685Z,14.88
2022-08-28T09:21:51.657Z,13.27
2022-08-28T09:24:26.081Z,12.63
2022-08-28T09:27:05.727Z,13.50
2022-08-28T09:29:39.089Z,11.82
2022-08-28T09:32:29.890Z,10.27
2022-08-28T09:35:09.093Z,11.07
2022-08-28T09:37:37.123Z,10.85
2022-08-28T09:40:26.308Z,13.85
2022-08-28T09:43:20.367Z,13.82
2022-08-28T09:46:21.053Z,14.73
2022-08-28T09:48:52.311Z,14.25
2022-08-28T09:51:21.820Z,11.90
2022-08-28T09:54:03.754Z,11.85
2022-08-28T09:56:40.017Z,8.98
2022-08-28T09:59:10.715Z,8.73
2022-08-28T10:01:47.291Z,9.70
2022-08-28T10:04:15.114Z,7.82
2022-08-28T10:06:48.384Z,10.32
2022-08-28T10:09:23.470Z,9.00
2022-08-28T10:12:11.910Z,9.25
2022-08-28T10:15:03.627Z,8.25
2022-08-28T10:17:55.036Z,8.82
2022-08-28T10:20:27.747Z,9.05
2022-08-28T10:23:17.886Z,9.07
2022-08-28T10:25:51.672Z,6.70
2022-08-28T10:28:56.297Z,6.30
2022-08-28T10:31:33.537Z,6.00
2022-08-28T10:34:15.532Z,6.15
2022-08-28T10:36:49.420Z,8.80
2022-08-28T10:39:19.103Z,6.22
2022-08-28T10:42:03.231Z,9.15
2022-08-28T10:44:36.942Z,6.13
2022-08-28T10:47:05.622Z,6.60
2022-08-28T10:49:36.950Z,4.57
2022-08-28T10:52:18.180Z,5.53
2022-08-28T10:54:52.295Z,5.53
2022-08-28T10:57:39.492Z,5.43
2022-08-28T11:00:14.267Z,4.55
2022-08-28T11:02:45.154Z,5.30
2022-08-28T11:05:12.997Z,5.13
2022-08-28T11:07:54.607Z,7.32
2022-08-28T11:10:21.421Z,3.47
2022-08-28T11:12:51.687Z,3.90
2022-08-28T11:15:34.233Z,3.65
2022-08-28T11:18:15.852Z,4.47
2022-08-28T11:20:56.933Z,4.15
2022-08-28T11:23:47.972Z,3.85
2022-08-28T11:26:28.701Z,4.28
2022-08-28T11:28:55.786Z,5.28
2022-08-28T11:31:29.400Z,4.57
2022-08-28T11:33:59.226Z,4.95
2022-08-28T11:36:28.232Z,7.78
2022-08-28T11:38:55.296Z,5.93
2022-08-28T11:41:39.987Z,3.35
2022-08-28T11:44:09.460Z,6.20
2022-08-28T11:46:38.763Z,3.53
2022-08-28T11:49:31.671Z,4.07
2022-08-28T11:52:07.081Z,3.45
2022-08-28T11:54:39.973Z,3.70
2022-08-28T11:57:25.598Z,2.85
2022-08-28T11:59:55.358Z,3.42
2022-08-28T12:02:40.533Z,4.28
2022-08-28T12:07:39.516Z,3.30
2022-08-28T12:10:24.696Z,3.15
2022-08-28T12:13:00.538Z,3.15
2022-08-28T12:15:27.216Z,4.60
2022-08-28T12:18:11.929Z,4.80
2022-08-28T12:21:01.432Z,3.17
2022-08-28T12:23:34.673Z,4.75
2022-08-28T12:26:28.368Z,3.85
2022-08-28T12:29:01.837Z,2.90
2022-08-28T12:32:14.514Z,4.65
2022-08-28T12:34:45.769Z,3.55
2022-08-28T12:37:28.055Z,3.28
2022-08-28T12:39:58.218Z,2.17
2022-08-28T12:42:32.844Z,2.22
2022-08-28T12:47:28.955Z,2.10
2022-08-28T12:49:55.834Z,4.60
2022-08-28T12:52:25.549Z,3.25
2022-08-28T12:54:55.334Z,3.22
2022-08-28T12:57:25.248Z,2.13
2022-08-28T12:59:54.923Z,2.28
2022-08-28T13:02:33.444Z,3.10
2022-08-28T13:05:10.236Z,5.75
2022-08-28T13:07:47.141Z,5.75
2022-08-28T13:10:40.247Z,3.63
2022-08-28T13:13:17.813Z,2.20
2022-08-28T13:15:58.582Z,4.28
2022-08-28T13:18:49.704Z,3.05
2022-08-28T13:21:28.659Z,8.27
2022-08-28T13:24:20.526Z,2.58
2022-08-28T13:27:00.673Z,5.03
2022-08-28T13:29:27.648Z,3.80
2022-08-28T13:32:05.131Z,3.88
2022-08-28T13:34:34.324Z,2.97
2022-08-28T13:37:14.980Z,2.47
2022-08-28T13:39:47.428Z,2.92
2022-08-28T13:42:16.802Z,5.03
2022-08-28T13:44:50.775Z,3.90
2022-08-28T13:47:18.039Z,3.28
2022-08-28T13:49:44.979Z,3.88
2022-08-28T13:52:12.779Z,3.33
2022-08-28T13:54:42.530Z,2.72
2022-08-28T13:57:13.546Z,3.28
2022-08-28T13:59:40.465Z,1.65
2022-08-28T14:02:29.897Z,3.08
2022-08-28T14:04:56.770Z,1.92
2022-08-28T14:07:23.739Z,3.72
2022-08-28T14:09:55.502Z,3.05
2022-08-28T14:12:23.094Z,1.90
2022-08-28T14:14:59.959Z,5.40
2022-08-28T14:17:26.747Z,4.72
2022-08-28T14:19:53.628Z,2.00
2022-08-28T14:22:20.443Z,2.65
2022-08-28T14:24:47.160Z,3.67
2022-08-28T14:27:13.913Z,1.83
2022-08-28T14:29:40.614Z,2.30
2022-08-28T14:32:07.643Z,2.67
2022-08-28T14:34:34.907Z,2.05
2022-08-28T14:37:01.847Z,4.00
2022-08-28T14:39:28.726Z,4.38
2022-08-28T14:41:55.675Z,4.75
2022-08-28T14:44:24.290Z,2.03
2022-08-28T14:46:56.924Z,3.85
2022-08-28T14:49:25.924Z,3.30
2022-08-28T14:51:54.090Z,2.92
2022-08-28T14:54:23.089Z,4.90
2022-08-28T14:56:51.138Z,3.60
2022-08-28T14:59:26.367Z,3.45
2022-08-28T15:01:55.638Z,4.93
2022-08-28T15:04:24.316Z,3.70
2022-08-28T15:06:58.800Z,3.13
2022-08-28T15:09:26.253Z,2.00
2022-08-28T15:11:53.325Z,3.67
2022-08-28T15:14:20.413Z,2.25
2022-08-28T15:16:49.371Z,3.72
2022-08-28T15:19:18.303Z,2.70
2022-08-28T15:21:49.442Z,3.20
2022-08-28T15:24:19.176Z,1.98
2022-08-28T15:26:46.950Z,5.70
2022-08-28T15:29:14.264Z,3.45
2022-08-28T15:31:45.687Z,3.58
2022-08-28T15:34:20.327Z,2.35
2022-08-28T15:36:52.851Z,2.33
2022-08-28T15:39:41.206Z,2.35
2022-08-28T15:42:08.516Z,3.50
2022-08-28T15:44:35.415Z,2.78
2022-08-28T15:47:04.831Z,5.03
2022-08-28T15:49:36.104Z,3.65
2022-08-28T15:52:10.618Z,2.55
2022-08-28T15:54:37.804Z,4.35
2022-08-28T15:57:04.593Z,4.22
2022-08-28T15:59:48.396Z,2.10
2022-08-28T16:02:22.462Z,2.83
2022-08-28T16:04:49.747Z,2.42
2022-08-28T16:07:17.312Z,2.67
2022-08-28T16:09:44.092Z,2.85
2022-08-28T16:12:10.811Z,3.42
2022-08-28T16:14:37.486Z,4.20
2022-08-28T16:17:06.031Z,3.05
2022-08-28T16:19:39.875Z,2.47
2022-08-28T16:22:07.906Z,5.72
2022-08-28T16:24:34.914Z,2.70
2022-08-28T16:27:01.642Z,3.20
2022-08-28T16:29:28.484Z,4.22
2022-08-28T16:31:56.693Z,4.38
2022-08-28T16:34:26.128Z,3.67
2022-08-28T16:36:56.169Z,5.35
2022-08-28T16:39:22.869Z,6.35
2022-08-28T16:41:50.195Z,3.72
2022-08-28T16:44:22.138Z,3.35
2022-08-28T16:46:49.327Z,4.20
2022-08-28T16:49:16.157Z,4.43
2022-08-28T16:51:42.984Z,6.45
2022-08-28T16:54:09.759Z,3.85
2022-08-28T16:56:36.675Z,2.55
2022-08-28T16:59:04.420Z,2.50
2022-08-28T17:01:37.970Z,4.30
2022-08-28T17:04:07.738Z,3.70
2022-08-28T17:06:35.440Z,2.70
2022-08-28T17:09:02.162Z,4.18
2022-08-28T17:11:29.372Z,5.68
2022-08-28T17:13:56.868Z,4.53
2022-08-28T17:16:25.476Z,6.65
2022-08-28T17:18:52.945Z,4.20
2022-08-28T17:21:40.184Z,3.88
2022-08-28T17:24:07.908Z,4.00
2022-08-28T17:26:34.668Z,4.13
2022-08-28T17:29:01.490Z,4.22
2022-08-28T17:31:28.222Z,3.08
2022-08-28T17:33:55.263Z,4.82
2022-08-28T17:36:33.070Z,2.85
2022-08-28T17:39:03.085Z,5.32
2022-08-28T17:41:29.903Z,2.85
2022-08-28T17:43:56.915Z,4.55
2022-08-28T17:46:23.739Z,3.45
2022-08-28T17:48:55.547Z,6.05
2022-08-28T17:51:42.527Z,4.32
2022-08-28T17:54:18.861Z,5.78
2022-08-28T17:56:46.387Z,3.95
2022-08-28T17:59:13.993Z,4.03
2022-08-28T18:01:44.654Z,4.57
2022-08-28T18:04:12.377Z,4.85
2022-08-28T18:06:39.419Z,3.72
2022-08-28T18:09:08.443Z,5.13
2022-08-28T18:11:35.861Z,3.67
2022-08-28T18:14:02.776Z,4.78
2022-08-28T18:16:31.928Z,7.43
2022-08-28T18:18:59.905Z,3.60
2022-08-28T18:21:27.218Z,5.47
2022-08-28T18:23:53.922Z,7.55
2022-08-28T18:26:20.809Z,3.92
2022-08-28T18:28:47.650Z,4.25
2022-08-28T18:31:14.497Z,5.57
2022-08-28T18:33:41.264Z,4.82
2022-08-28T18:36:10.168Z,5.05
2022-08-28T18:38:37.664Z,5.07
2022-08-28T18:41:06.434Z,4.50
2022-08-28T18:43:33.461Z,4.65
2022-08-28T18:46:01.540Z,5.93
2022-08-28T18:48:28.992Z,7.22
2022-08-28T18:50:55.793Z,6.88
2022-08-28T18:53:24.216Z,6.13
2022-08-28T18:55:52.699Z,6.35
2022-08-28T18:58:20.097Z,4.13
2022-08-28T19:00:46.819Z,5.22
2022-08-28T19:03:14.613Z,4.32
2022-08-28T19:05:41.712Z,3.78
2022-08-28T19:08:08.476Z,5.18
2022-08-28T19:10:36.863Z,8.13
2022-08-28T19:13:05.483Z,4.82
2022-08-28T19:15:33.169Z,5.78
2022-08-28T19:18:00.492Z,7.82
2022-08-28T19:20:28.135Z,5.57
2022-08-28T19:22:56.242Z,4.47
2022-08-28T19:25:28.265Z,7.55
2022-08-28T19:27:59.248Z,7.60
2022-08-28T19:30:28.142Z,5.38
2022-08-28T19:32:55.210Z,5.65
2022-08-28T19:35:24.464Z,8.52
2022-08-28T19:37:52.203Z,7.70
2022-08-28T19:40:20.598Z,6.72
2022-08-28T19:42:47.988Z,9.30
2022-08-28T19:45:15.126Z,9.02
2022-08-28T19:47:42.092Z,8.63
2022-08-28T19:50:11.048Z,6.28
2022-08-28T19:52:38.461Z,8.13
2022-08-28T19:55:06.582Z,10.90
2022-08-28T19:57:34.540Z,6.63
2022-08-28T20:00:01.938Z,5.18
2022-08-28T20:02:29.466Z,10.13
2022-08-28T20:04:56.434Z,12.57
2022-08-28T20:07:24.805Z,10.85
2022-08-28T20:09:52.116Z,8.32
2022-08-28T20:12:19.697Z,6.78
2022-08-28T20:14:46.966Z,10.77
2022-08-28T20:17:14.103Z,10.70
2022-08-28T20:19:41.382Z,9.48
2022-08-28T20:22:08.603Z,7.03
2022-08-28T20:24:35.675Z,6.22
2022-08-28T20:27:02.460Z,6.97
2022-08-28T20:29:29.215Z,5.75
2022-08-28T20:31:56.391Z,5.35
2022-08-28T20:34:23.507Z,5.53
2022-08-28T20:36:50.281Z,6.63
2022-08-28T20:39:17.501Z,6.65
2022-08-28T20:41:45.926Z,6.10
2022-08-28T20:44:15.465Z,5.00
2022-08-28T20:46:43.820Z,6.80
2022-08-28T20:49:15.867Z,8.43
2022-08-28T20:51:53.410Z,7.18
2022-08-28T20:54:21.843Z,5.72
2022-08-28T20:56:50.660Z,5.75
2022-08-28T20:59:18.228Z,9.95
2022-08-28T21:01:45.586Z,6.78
2022-08-28T21:04:12.513Z,5.50
2022-08-28T21:06:39.234Z,5.78
2022-08-28T21:09:05.948Z,6.40
2022-08-28T21:11:32.674Z,7.93
2022-08-28T21:13:59.588Z,6.53
2022-08-28T21:16:26.337Z,6.38
2022-08-28T21:19:14.620Z,6.45
2022-08-28T21:21:41.110Z,5.10
2022-08-28T21:24:10.936Z,5.70
2022-08-28T21:26:40.765Z,7.68
2022-08-28T21:29:10.092Z,7.80
2022-08-28T21:31:37.528Z,4.97
2022-08-28T21:34:04.297Z,5.32
2022-08-28T21:36:31.581Z,5.10
2022-08-28T21:38:58.489Z,6.45
2022-08-28T21:41:25.235Z,7.68
2022-08-28T21:43:51.955Z,6.25
2022-08-28T21:46:18.980Z,7.60
2022-08-28T21:48:49.247Z,5.75
2022-08-28T21:51:17.831Z,9.90
2022-08-28T21:53:44.883Z,6.60
2022-08-28T21:56:15.195Z,8.98
2022-08-28T21:58:41.883Z,7.18
2022-08-28T22:01:14.156Z,6.03
2022-08-28T22:03:41.790Z,6.85
2022-08-28T22:06:14.404Z,11.88
2022-08-28T22:08:41.930Z,6.88
2022-08-28T22:11:10.611Z,5.88
2022-08-28T22:13:37.747Z,7.07
2022-08-28T22:16:06.074Z,7.00
2022-08-28T22:18:34.124Z,7.75
2022-08-28T22:21:20.192Z,11.23
2022-08-28T22:23:47.704Z,9.02
2022-08-28T22:26:17.689Z,12.18
2022-08-28T22:28:44.508Z,7.60
2022-08-28T22:31:11.555Z,8.45
2022-08-28T22:33:38.792Z,9.82
2022-08-28T22:36:05.740Z,8.93
2022-08-28T22:38:32.738Z,13.52
2022-08-28T22:40:59.480Z,8.93
2022-08-28T22:43:26.748Z,10.10
2022-08-28T22:45:53.535Z,12.20
2022-08-28T22:48:20.281Z,14.85
2022-08-28T22:50:47.883Z,11.00
2022-08-28T22:53:17.152Z,10.70
2022-08-28T22:55:44.853Z,11.43
2022-08-28T22:58:12.919Z,11.75
2022-08-28T23:00:41.720Z,12.10
2022-08-28T23:03:08.530Z,12.85
2022-08-28T23:05:35.592Z,15.27
2022-08-28T23:08:02.480Z,12.52
2022-08-28T23:10:55.171Z,13.50
2022-08-28T23:13:16.288Z,14.32
2022-08-28T23:15:43.861Z,11.40
2022-08-28T23:18:11.181Z,15.05
2022-08-28T23:20:39.332Z,12.02
2022-08-28T23:23:06.384Z,10.90
2022-08-28T23:25:33.618Z,12.25
2022-08-28T23:28:05.873Z,13.65
2022-08-28T23:30:33.947Z,14.27
2022-08-28T23:33:00.663Z,14.60
2022-08-28T23:35:27.756Z,11.15
2022-08-28T23:37:54.531Z,11.50
2022-08-28T23:40:23.628Z,11.23
2022-08-28T23:42:51.889Z,14.13
2022-08-28T23:45:19.304Z,12.60
2022-08-28T23:47:46.933Z,16.20
2022-08-28T23:50:20.972Z,13.48
2022-08-28T23:52:48.395Z,12.93
2022-08-28T23:55:18.139Z,12.77
2022-08-28T23:57:45.981Z,18.70
